Time;durP1;ratioP1;P1;durP2;ratioP2;P2;SDS_P1;SDS_P2;PMS_P1;PMS_P2;Temp;Humidity;BMP_temperature;BMP_pressure;BME280_temperature;BME280_humidity;BME280_pressure;Samples;Min_cycle;Max_cycle;Signal;HPM_P1;HPM_P2
2022/10/13 00:00:31;;;;;;;12.30;10.93;;;;;;;11.25;100.00;98632.97;5035397;28;20639;-71
2022/10/13 00:03:02;;;;;;;17.30;11.80;;;;;;;11.28;100.00;98630.72;5035299;28;20207;-71
2022/10/13 00:05:29;;;;;;;18.97;11.43;;;;;;;11.29;100.00;98635.00;5035340;28;20636;-72
2022/10/13 00:07:56;;;;;;;15.50;11.37;;;;;;;11.23;100.00;98627.03;5035618;28;20230;-71
2022/10/13 00:10:24;;;;;;;15.80;11.20;;;;;;;11.17;100.00;98636.66;5035477;28;20229;-71
2022/10/13 00:12:51;;;;;;;16.07;11.73;;;;;;;11.22;100.00;98642.19;5035549;28;20210;-71
2022/10/13 00:15:18;;;;;;;17.27;12.47;;;;;;;11.24;100.00;98645.47;5035453;28;20229;-71
2022/10/13 00:17:45;;;;;;;19.07;12.43;;;;;;;11.35;100.00;98649.31;5035126;28;20694;-71
2022/10/13 00:20:12;;;;;;;16.87;12.07;;;;;;;11.38;100.00;98644.41;5035299;28;20226;-71
2022/10/13 00:22:38;;;;;;;17.33;14.80;;;;;;;11.56;100.00;98649.03;5035378;28;20202;-72
2022/10/13 00:25:05;;;;;;;21.53;14.20;;;;;;;11.51;100.00;98644.34;5035204;28;20230;-72
2022/10/13 00:27:31;;;;;;;22.93;13.87;;;;;;;11.54;100.00;98653.75;5034908;28;20207;-72
2022/10/13 00:29:58;;;;;;;18.93;13.80;;;;;;;11.58;100.00;98647.78;5034907;28;20238;-71
2022/10/13 00:32:24;;;;;;;17.37;13.10;;;;;;;11.58;100.00;98650.47;5035180;28;20194;-71
2022/10/13 00:34:51;;;;;;;20.33;13.87;;;;;;;11.59;100.00;98657.44;5035068;28;20203;-71
2022/10/13 00:37:17;;;;;;;21.07;14.77;;;;;;;11.61;100.00;98651.94;5034752;28;20579;-72
2022/10/13 00:39:43;;;;;;;18.37;14.60;;;;;;;11.65;100.00;98648.63;5034997;28;20554;-71
2022/10/13 00:42:12;;;;;;;21.47;15.60;;;;;;;11.61;100.00;98643.94;5034944;28;20570;-71
2022/10/13 00:45:24;;;;;;;20.03;16.07;;;;;;;11.56;100.00;98649.03;5034516;28;20229;-72
2022/10/13 00:48:01;;;;;;;22.63;16.07;;;;;;;11.53;100.00;98633.50;4954478;29;20211;-72
2022/10/13 00:50:36;;;;;;;20.30;15.33;;;;;;;11.51;100.00;98649.69;5028886;28;20226;-71
2022/10/13 00:53:04;;;;;;;26.13;15.80;;;;;;;11.53;100.00;98631.63;5034518;28;20190;-72
2022/10/13 00:55:33;;;;;;;22.37;16.63;;;;;;;11.47;100.00;98632.50;5034396;28;20207;-71
2022/10/13 00:58:01;;;;;;;20.80;15.20;;;;;;;11.45;100.00;98633.72;5034682;28;20207;-72
2022/10/13 01:00:28;;;;;;;22.13;16.17;;;;;;;11.35;100.00;98636.81;5034195;28;20229;-71
2022/10/13 01:02:55;;;;;;;20.07;14.87;;;;;;;11.29;100.00;98637.66;5034521;28;20210;-71
2022/10/13 01:05:22;;;;;;;22.47;14.97;;;;;;;11.21;100.00;98632.56;5034385;28;20230;-72
2022/10/13 01:07:49;;;;;;;18.67;14.87;;;;;;;11.20;100.00;98638.91;5034452;28;20202;-71
2022/10/13 01:10:27;;;;;;;21.13;14.87;;;;;;;11.23;100.00;98631.31;5034057;28;20592;-71
2022/10/13 01:13:11;;;;;;;24.63;16.00;;;;;;;11.29;100.00;98635.00;5034450;28;20193;-71
2022/10/13 01:15:48;;;;;;;21.33;16.33;;;;;;;11.35;100.00;98628.84;5034042;28;20182;-71
2022/10/13 01:18:20;;;;;;;22.03;15.30;;;;;;;11.36;100.00;98633.16;5017356;28;20187;-72
2022/10/13 01:20:53;;;;;;;22.47;16.30;;;;;;;11.34;100.00;98629.88;5033909;28;20229;-71
2022/10/13 01:24:01;;;;;;;20.50;16.07;;;;;;;11.34;100.00;98629.88;5016622;28;20206;-72
2022/10/13 01:26:46;;;;;;;19.43;15.03;;;;;;;11.35;100.00;98631.50;5033619;28;20230;-72
2022/10/13 01:29:43;;;;;;;22.40;15.53;;;;;;;11.25;100.00;98628.47;5034067;28;20214;-72
2022/10/13 01:32:54;;;;;;;18.80;14.40;;;;;;;11.22;100.00;98628.06;5033775;28;20202;-72
2022/10/13 01:35:44;;;;;;;18.90;14.53;;;;;;;11.19;100.00;98622.13;5034041;28;20187;-72
2022/10/13 01:38:35;;;;;;;17.97;13.93;;;;;;;11.19;100.00;98630.09;5016898;28;20560;-72
2022/10/13 01:41:13;;;;;;;18.83;14.00;;;;;;;11.16;100.00;98621.72;5033896;28;20222;-72
2022/10/13 01:43:46;;;;;;;18.17;14.30;;;;;;;11.17;100.00;98615.38;5034457;28;20194;-72
2022/10/13 01:46:18;;;;;;;19.07;14.33;;;;;;;11.22;100.00;98614.75;5016026;28;20207;-72
2022/10/13 01:48:45;;;;;;;19.40;14.97;;;;;;;11.21;100.00;98616.59;5017072;28;20562;-72
2022/10/13 01:51:16;;;;;;;24.03;14.17;;;;;;;11.25;100.00;98612.50;5033420;28;20711;-72
2022/10/13 01:53:45;;;;;;;17.37;14.37;;;;;;;11.28;100.00;98620.06;5016763;28;20635;-72
2022/10/13 01:56:12;;;;;;;20.67;15.53;;;;;;;11.28;100.00;98612.88;5033683;28;20207;-72
2022/10/13 01:58:39;;;;;;;19.80;15.20;;;;;;;11.25;100.00;98609.03;5033623;28;20214;-72
2022/10/13 02:01:27;;;;;;;22.47;14.33;;;;;;;11.21;100.00;98605.94;5033972;28;20226;-72
2022/10/13 02:04:37;;;;;;;17.70;14.20;;;;;;;11.10;100.00;98602.06;5034181;28;20201;-72
2022/10/13 02:07:19;;;;;;;18.90;14.17;;;;;;;11.05;100.00;98601.91;5033624;28;20183;-72
2022/10/13 02:10:06;;;;;;;21.37;14.80;;;;;;;11.01;100.00;98599.88;5000749;28;20190;-72
2022/10/13 02:12:49;;;;;;;20.03;13.57;;;;;;;10.98;100.00;98602.13;5033562;28;20223;-72
2022/10/13 02:15:21;;;;;;;20.20;14.03;;;;;;;10.95;100.00;98598.06;5033537;28;20567;-72
2022/10/13 02:17:47;;;;;;;15.70;13.73;;;;;;;10.83;100.00;98591.72;5033120;28;20190;-71
2022/10/13 02:20:16;;;;;;;19.50;15.07;;;;;;;10.96;100.00;98599.69;5032963;28;20709;-71
2022/10/13 02:22:47;;;;;;;19.47;13.97;;;;;;;10.86;100.00;98597.44;5033428;28;20206;-72
2022/10/13 02:25:13;;;;;;;20.27;15.93;;;;;;;10.89;100.00;98601.53;5016146;28;20221;-71
2022/10/13 02:27:40;;;;;;;23.40;17.40;;;;;;;10.99;100.00;98604.56;5033392;28;20202;-72
2022/10/13 02:30:07;;;;;;;20.40;15.63;;;;;;;10.97;100.00;98596.00;5015337;28;20724;-71
2022/10/13 02:32:33;;;;;;;24.63;16.73;;;;;;;11.01;100.00;98606.00;5033753;28;20548;-72
2022/10/13 02:35:00;;;;;;;22.00;16.73;;;;;;;11.10;100.00;98604.75;5033345;28;20224;-72
2022/10/13 02:37:26;;;;;;;22.70;16.07;;;;;;;11.13;100.00;98608.84;5033102;28;20210;-72
2022/10/13 02:39:53;;;;;;;23.67;16.50;;;;;;;11.16;100.00;98608.41;5032881;28;20730;-72
2022/10/13 02:42:19;;;;;;;23.83;16.40;;;;;;;11.22;100.00;98607.59;5033628;28;20218;-72
2022/10/13 02:44:45;;;;;;;23.50;16.90;;;;;;;11.27;100.00;98614.94;5033166;28;20222;-72
2022/10/13 02:47:12;;;;;;;24.20;16.83;;;;;;;11.30;100.00;98607.34;5033214;28;20210;-72
2022/10/13 02:49:38;;;;;;;21.93;16.63;;;;;;;11.31;100.00;98605.50;5033027;28;20218;-72
2022/10/13 02:52:04;;;;;;;25.17;16.60;;;;;;;11.30;100.00;98603.88;5033187;28;20210;-72
2022/10/13 02:54:31;;;;;;;24.30;16.73;;;;;;;11.29;100.00;98597.75;5032854;28;20217;-72
2022/10/13 02:56:57;;;;;;;19.43;16.37;;;;;;;11.35;100.00;98604.88;5032806;28;20202;-72
2022/10/13 02:59:23;;;;;;;25.20;16.63;;;;;;;11.31;100.00;98600.19;5032788;28;20204;-72
2022/10/13 03:01:50;;;;;;;23.53;17.13;;;;;;;11.27;100.00;98598.97;5032646;28;20719;-72
2022/10/13 03:04:16;;;;;;;21.07;16.23;;;;;;;11.30;100.00;98606.56;5032634;28;20558;-72
2022/10/13 03:06:43;;;;;;;24.33;17.40;;;;;;;11.33;100.00;98598.94;5032892;28;20236;-72
2022/10/13 03:09:09;;;;;;;25.87;16.03;;;;;;;11.36;100.00;98603.03;5033018;28;20208;-72
2022/10/13 03:11:35;;;;;;;25.10;16.90;;;;;;;11.36;100.00;98587.91;5032810;28;20222;-72
2022/10/13 03:14:02;;;;;;;20.13;16.00;;;;;;;11.32;100.00;98594.66;5035346;28;20214;-72
2022/10/13 03:16:28;;;;;;;23.60;16.90;;;;;;;11.30;100.00;98582.59;5036563;28;20209;-72
2022/10/13 03:18:55;;;;;;;23.27;16.73;;;;;;;11.36;100.00;98593.22;5036463;28;20210;-71
2022/10/13 03:21:21;;;;;;;21.67;17.30;;;;;;;11.40;100.00;98588.28;5036468;28;20223;-71
2022/10/13 03:23:48;;;;;;;21.90;17.00;;;;;;;11.41;100.00;98589.91;5036383;28;20215;-72
2022/10/13 03:26:15;;;;;;;23.57;17.03;;;;;;;11.47;100.00;98594.38;5036245;28;20230;-71
2022/10/13 03:28:41;;;;;;;22.83;16.87;;;;;;;11.48;100.00;98578.19;5035953;28;20689;-72
2022/10/13 03:31:10;;;;;;;22.87;16.57;;;;;;;11.49;100.00;98582.50;5035865;28;20238;-72
2022/10/13 03:33:37;;;;;;;23.90;16.80;;;;;;;11.49;100.00;98577.16;5036035;28;20250;-72
2022/10/13 03:36:06;;;;;;;25.47;17.90;;;;;;;11.52;100.00;98568.75;5036031;28;20205;-72
2022/10/13 03:38:34;;;;;;;27.57;17.77;;;;;;;11.52;100.00;98567.97;5036135;28;20212;-72
2022/10/13 03:41:09;;;;;;;22.20;16.97;;;;;;;11.53;100.00;98562.41;5035932;28;20223;-72
2022/10/13 03:43:36;;;;;;;25.93;16.80;;;;;;;11.54;100.00;98556.06;5035837;28;20235;-72
2022/10/13 03:46:03;;;;;;;24.50;17.40;;;;;;;11.53;100.00;98562.41;5035803;28;20233;-72
2022/10/13 03:48:30;;;;;;;24.30;17.03;;;;;;;11.51;100.00;98567.13;5035825;28;20203;-72
2022/10/13 03:50:57;;;;;;;26.53;18.17;;;;;;;11.48;100.00;98559.56;5035477;28;20656;-72
2022/10/13 03:53:23;;;;;;;27.80;17.77;;;;;;;11.43;100.00;98570.03;5035592;28;20214;-72
2022/10/13 03:55:54;;;;;;;24.40;18.27;;;;;;;11.46;100.00;98566.97;5035751;28;20202;-72
2022/10/13 03:58:22;;;;;;;25.03;16.80;;;;;;;11.47;100.00;98562.44;5035670;28;20198;-72
2022/10/13 04:00:48;;;;;;;24.07;18.10;;;;;;;11.50;100.00;98578.81;5035065;28;20227;-71
2022/10/13 04:03:15;;;;;;;24.27;16.83;;;;;;;11.53;100.00;98572.25;5036224;28;20207;-72
2022/10/13 04:05:42;;;;;;;24.43;17.50;;;;;;;11.55;100.00;98573.69;5035071;28;20705;-72
2022/10/13 04:08:09;;;;;;;23.03;17.17;;;;;;;11.55;100.00;98576.34;5035185;28;20689;-72
2022/10/13 04:10:35;;;;;;;23.80;16.80;;;;;;;11.57;100.00;98574.25;5035367;28;20227;-72
2022/10/13 04:13:02;;;;;;;24.13;17.13;;;;;;;11.56;100.00;98571.81;5036099;28;20228;-72
2022/10/13 04:15:28;;;;;;;26.30;17.27;;;;;;;11.57;100.00;98574.25;5036242;28;20556;-72
2022/10/13 04:17:54;;;;;;;19.33;16.37;;;;;;;11.60;100.00;98575.72;5035184;28;20349;-72
2022/10/13 04:20:21;;;;;;;20.63;16.07;;;;;;;11.61;100.00;98572.03;5035425;28;20231;-71
2022/10/13 04:22:47;;;;;;;22.47;15.93;;;;;;;11.62;100.00;98573.69;5035931;28;20211;-72
2022/10/13 04:25:13;;;;;;;25.60;16.57;;;;;;;11.53;100.00;98557.06;5033896;28;20293;-72
2022/10/13 04:27:40;;;;;;;23.73;16.30;;;;;;;11.55;100.00;98559.53;5035055;28;20580;-72
2022/10/13 04:30:07;;;;;;;21.37;16.80;;;;;;;11.59;100.00;98561.56;5034850;28;20271;-72
2022/10/13 04:32:33;;;;;;;18.27;15.53;;;;;;;11.57;100.00;98565.47;5034992;28;20197;-72
2022/10/13 04:35:00;;;;;;;22.43;15.70;;;;;;;11.60;100.00;98560.56;5034956;28;20239;-72
2022/10/13 04:37:26;;;;;;;20.63;16.13;;;;;;;11.62;100.00;98566.47;5034844;28;20211;-72
2022/10/13 04:39:52;;;;;;;20.50;15.53;;;;;;;11.59;100.00;98564.22;5034648;28;20224;-72
2022/10/13 04:42:19;;;;;;;22.73;15.97;;;;;;;11.59;100.00;98566.06;5034514;28;20203;-72
2022/10/13 04:44:45;;;;;;;23.37;16.30;;;;;;;11.57;100.00;98557.50;5034539;28;20214;-72
2022/10/13 04:47:11;;;;;;;18.30;15.70;;;;;;;11.56;100.00;98566.47;5034541;28;20281;-72
2022/10/13 04:49:38;;;;;;;23.17;15.00;;;;;;;11.56;100.00;98561.97;5034141;28;20211;-72
2022/10/13 04:52:04;;;;;;;19.73;15.13;;;;;;;11.54;100.00;98550.75;5034488;28;20206;-72
2022/10/13 04:54:30;;;;;;;23.53;15.63;;;;;;;11.54;100.00;98553.41;5034286;28;20214;-72
2022/10/13 04:56:58;;;;;;;19.43;15.27;;;;;;;11.48;100.00;98548.91;5034271;28;20221;-72
2022/10/13 04:59:24;;;;;;;27.70;15.23;;;;;;;11.48;100.00;98546.25;5034196;28;20575;-72
2022/10/13 05:01:50;;;;;;;18.97;14.00;;;;;;;11.48;100.00;98543.59;5033686;28;20232;-72
2022/10/13 05:04:17;;;;;;;21.67;14.63;;;;;;;11.46;100.00;98539.50;5033656;28;20665;-72
2022/10/13 05:06:44;;;;;;;18.27;14.53;;;;;;;11.40;100.00;98527.84;5033858;28;20230;-72
2022/10/13 05:09:15;;;;;;;19.77;13.90;;;;;;;11.37;100.00;98536.28;5033961;28;20204;-72
2022/10/13 05:11:41;;;;;;;20.67;14.33;;;;;;;11.29;100.00;98539.19;5033855;28;20235;-72
2022/10/13 05:14:08;;;;;;;21.17;13.73;;;;;;;11.37;100.00;98540.78;5033619;28;20214;-72
2022/10/13 05:16:34;;;;;;;15.73;12.93;;;;;;;11.31;100.00;98549.63;5033640;28;20203;-72
2022/10/13 05:19:01;;;;;;;20.37;14.10;;;;;;;11.30;100.00;98551.44;5033520;28;20210;-72
2022/10/13 05:21:29;;;;;;;17.20;14.23;;;;;;;11.23;100.00;98554.13;5033152;28;20342;-72
2022/10/13 05:23:57;;;;;;;16.67;13.50;;;;;;;11.26;100.00;98555.56;5033443;28;20203;-72
2022/10/13 05:26:27;;;;;;;19.93;14.73;;;;;;;11.26;100.00;98552.09;5033146;28;20232;-72
2022/10/13 05:28:58;;;;;;;19.20;13.70;;;;;;;11.26;100.00;98554.75;5033427;28;20719;-72
2022/10/13 05:31:26;;;;;;;19.20;13.93;;;;;;;11.23;100.00;98553.34;5033365;28;20245;-71
2022/10/13 05:33:53;;;;;;;17.93;13.77;;;;;;;11.26;100.00;98544.13;5034000;28;20211;-72
2022/10/13 05:36:23;;;;;;;19.97;15.30;;;;;;;11.26;100.00;98550.25;5032594;28;20214;-72
2022/10/13 05:38:52;;;;;;;18.50;14.57;;;;;;;11.34;100.00;98565.19;5033454;28;20210;-72
2022/10/13 05:41:19;;;;;;;20.73;15.17;;;;;;;11.38;100.00;98559.22;5033124;28;20239;-71
2022/10/13 05:43:45;;;;;;;19.47;14.40;;;;;;;11.41;100.00;98556.13;5033384;28;20218;-71
2022/10/13 05:46:12;;;;;;;19.70;15.17;;;;;;;11.49;100.00;98557.72;5032562;28;20230;-71
2022/10/13 05:48:38;;;;;;;20.67;15.23;;;;;;;11.55;100.00;98562.19;5033420;28;20541;-71
2022/10/13 05:51:11;;;;;;;25.70;14.97;;;;;;;11.57;100.00;98566.28;5032791;28;20223;-71
2022/10/13 05:53:40;;;;;;;19.10;14.50;;;;;;;11.54;100.00;98558.72;5033137;28;20214;-71
2022/10/13 05:56:13;;;;;;;20.60;14.87;;;;;;;11.62;100.00;98565.69;5033186;28;20215;-71
2022/10/13 05:58:44;;;;;;;20.03;14.80;;;;;;;11.60;100.00;98565.06;5016178;28;20564;-72
2022/10/13 06:01:16;;;;;;;19.33;14.53;;;;;;;11.62;100.00;98555.84;5032900;28;20236;-72
2022/10/13 06:03:44;;;;;;;20.13;14.80;;;;;;;11.65;100.00;98550.09;5015237;28;20199;-72
2022/10/13 06:06:11;;;;;;;20.60;15.00;;;;;;;11.67;100.00;98544.56;5032690;28;20250;-71
2022/10/13 06:08:38;;;;;;;19.27;15.40;;;;;;;11.66;100.00;98551.72;5033010;28;20287;-71
2022/10/13 06:11:05;;;;;;;20.00;15.17;;;;;;;11.70;100.00;98539.59;5033143;28;20225;-71
2022/10/13 06:13:32;;;;;;;20.50;15.60;;;;;;;11.73;100.00;98541.84;5033053;28;20213;-71
2022/10/13 06:15:59;;;;;;;26.37;16.07;;;;;;;11.79;100.00;98545.47;5032994;28;20636;-71
2022/10/13 06:18:25;;;;;;;24.17;16.40;;;;;;;11.81;100.00;98540.78;5032832;28;20566;-71
2022/10/13 06:20:52;;;;;;;21.90;15.67;;;;;;;11.86;100.00;98544.44;5033028;28;20234;-71
2022/10/13 06:23:18;;;;;;;18.93;15.57;;;;;;;11.91;100.00;98543.78;5033038;28;20209;-72
2022/10/13 06:25:49;;;;;;;28.53;15.83;;;;;;;11.92;100.00;98527.59;5032573;28;20206;-72
2022/10/13 06:28:17;;;;;;;21.10;15.27;;;;;;;12.02;100.00;98543.91;5032662;28;20781;-71
2022/10/13 06:30:46;;;;;;;20.30;15.77;;;;;;;12.08;100.00;98545.69;5032674;28;20244;-72
2022/10/13 06:33:13;;;;;;;20.30;14.53;;;;;;;12.10;100.00;98548.97;5032260;28;20644;-72
2022/10/13 06:35:39;;;;;;;23.00;15.67;;;;;;;12.07;100.00;98552.06;5032998;28;20738;-71
2022/10/13 06:38:06;;;;;;;20.70;15.57;;;;;;;12.12;100.00;98554.88;5032571;28;20682;-71
2022/10/13 06:40:32;;;;;;;19.97;14.57;;;;;;;12.15;100.00;98541.13;5032582;28;20229;-71
2022/10/13 06:42:59;;;;;;;19.20;15.77;;;;;;;12.18;100.00;98546.03;5014873;28;20266;-72
2022/10/13 06:45:25;;;;;;;20.50;15.37;;;;;;;12.19;100.00;98546.84;5032635;28;20216;-72
2022/10/13 06:47:55;;;;;;;19.07;14.83;;;;;;;12.17;100.00;98547.06;5033959;28;20243;-71
2022/10/13 06:50:22;;;;;;;19.00;14.77;;;;;;;12.20;100.00;98535.97;5036635;28;20228;-71
2022/10/13 06:52:49;;;;;;;18.97;14.17;;;;;;;12.22;100.00;98536.59;5036491;28;20212;-72
2022/10/13 06:55:15;;;;;;;20.00;14.97;;;;;;;12.26;100.00;98534.28;5036567;28;20213;-72
2022/10/13 06:57:42;;;;;;;18.67;14.37;;;;;;;12.40;100.00;98539.31;5036054;28;20652;-71
2022/10/13 07:00:08;;;;;;;16.77;13.93;;;;;;;12.37;100.00;98529.06;5036565;28;20229;-72
2022/10/13 07:02:35;;;;;;;20.27;13.83;;;;;;;12.36;100.00;98538.09;5036890;28;20575;-71
2022/10/13 07:05:01;;;;;;;19.87;14.63;;;;;;;12.35;100.00;98533.00;5036184;28;20208;-72
2022/10/13 07:07:28;;;;;;;20.77;15.07;;;;;;;12.38;100.00;98536.03;5036224;28;20230;-72
2022/10/13 07:09:54;;;;;;;19.67;14.73;;;;;;;12.43;100.00;98533.50;5036364;28;20229;-72
2022/10/13 07:12:20;;;;;;;18.83;13.90;;;;;;;12.48;100.00;98547.00;5036279;28;20220;-72
2022/10/13 07:14:47;;;;;;;21.50;14.93;;;;;;;12.49;100.00;98543.31;5037163;28;20209;-71
2022/10/13 07:17:14;;;;;;;22.83;14.37;;;;;;;12.52;100.00;98540.19;5036329;28;20198;-72
2022/10/13 07:19:40;;;;;;;21.87;14.63;;;;;;;12.58;100.00;98546.53;5036078;28;20216;-72
2022/10/13 07:22:07;;;;;;;22.07;15.13;;;;;;;12.57;100.00;98539.56;5036250;28;20217;-71
2022/10/13 07:24:33;;;;;;;18.50;14.50;;;;;;;12.67;100.00;98538.03;5036178;28;20202;-72
2022/10/13 07:26:59;;;;;;;21.70;14.50;;;;;;;12.69;100.00;98533.28;5035978;28;20228;-72
2022/10/13 07:29:26;;;;;;;19.13;13.13;;;;;;;12.80;100.00;98540.53;5036022;28;20210;-72
2022/10/13 07:31:52;;;;;;;18.63;13.23;;;;;;;12.71;100.00;98536.53;5036319;28;20213;-71
2022/10/13 07:34:18;;;;;;;20.93;13.77;;;;;;;12.79;100.00;98541.56;5035832;28;20209;-72
2022/10/13 07:36:45;;;;;;;21.43;13.87;;;;;;;12.78;100.00;98542.63;5035715;28;20202;-72
2022/10/13 07:39:12;;;;;;;17.00;13.00;;;;;;;12.88;100.00;98529.56;5035911;28;20281;-71
2022/10/13 07:41:38;;;;;;;17.67;12.87;;;;;;;12.94;100.00;98542.03;5035845;28;20237;-71
2022/10/13 07:44:05;;;;;;;18.87;14.13;;;;;;;12.97;100.00;98541.63;5035847;28;20209;-72
2022/10/13 07:46:31;;;;;;;17.20;12.70;;;;;;;13.04;100.00;98531.69;5035790;28;20229;-71
2022/10/13 07:48:58;;;;;;;19.33;12.67;;;;;;;13.10;100.00;98543.31;5035677;28;20201;-71
2022/10/13 07:51:24;;;;;;;19.43;12.03;;;;;;;13.06;100.00;98544.84;5035335;28;20712;-71
2022/10/13 07:53:51;;;;;;;18.03;12.13;;;;;;;13.11;100.00;98540.44;5035303;28;20687;-71
2022/10/13 07:56:17;;;;;;;20.23;11.67;;;;;;;13.19;100.00;98534.81;5036282;28;20296;-72
2022/10/13 07:58:46;;;;;;;18.00;12.17;;;;;;;13.47;100.00;98527.03;5035254;28;20202;-72
2022/10/13 08:01:14;;;;;;;17.07;11.67;;;;;;;13.34;100.00;98532.56;5035543;28;20230;-71
2022/10/13 08:03:41;;;;;;;21.73;12.10;;;;;;;13.40;100.00;98531.66;5035351;28;20213;-71
2022/10/13 08:06:08;;;;;;;20.73;11.93;;;;;;;13.46;100.00;98527.25;5035095;28;20216;-71
2022/10/13 08:08:34;;;;;;;18.83;12.17;;;;;;;13.55;100.00;98524.06;5035829;28;20212;-71
2022/10/13 08:11:06;;;;;;;17.70;11.03;;;;;;;13.58;100.00;98533.47;5035344;28;20304;-72
2022/10/13 08:13:33;;;;;;;19.40;11.70;;;;;;;13.55;100.00;98529.41;5035264;28;20247;-72
2022/10/13 08:16:00;;;;;;;16.07;10.90;;;;;;;13.55;100.00;98524.06;5034825;28;20660;-72
2022/10/13 08:18:30;;;;;;;17.63;11.53;;;;;;;13.53;100.00;98515.47;5035015;28;20302;-72
2022/10/13 08:21:01;;;;;;;19.07;11.73;;;;;;;13.50;100.00;98505.22;5035128;28;20225;-72
2022/10/13 08:23:28;;;;;;;20.43;11.67;;;;;;;13.50;100.00;98510.56;5034719;28;20197;-71
2022/10/13 08:25:55;;;;;;;22.63;12.07;;;;;;;13.52;100.00;98507.69;5035074;28;20214;-71
2022/10/13 08:28:25;;;;;;;17.87;10.80;;;;;;;13.67;100.00;98516.09;5034493;28;20693;-72
2022/10/13 08:30:54;;;;;;;18.80;11.00;;;;;;;13.62;100.00;98511.41;5034626;28;20249;-71
2022/10/13 08:33:20;;;;;;;17.07;10.87;;;;;;;13.69;100.00;98508.66;5034679;28;20601;-72
2022/10/13 08:35:47;;;;;;;13.17;10.90;;;;;;;13.78;100.00;98508.13;5034972;28;20206;-72
2022/10/13 08:38:13;;;;;;;18.43;11.23;;;;;;;13.92;100.00;98498.84;5034821;28;20206;-72
2022/10/13 08:40:39;;;;;;;17.90;10.70;;;;;;;14.10;100.00;98498.75;5034389;28;20226;-72
2022/10/13 08:43:15;;;;;;;13.00;9.83;;;;;;;14.20;100.00;98503.56;5034665;28;20213;-72
2022/10/13 08:45:41;;;;;;;18.67;10.40;;;;;;;14.15;100.00;98501.56;5034722;28;20189;-72
2022/10/13 08:48:31;;;;;;;14.10;9.70;;;;;;;14.30;100.00;98501.94;5034541;28;20234;-72
2022/10/13 08:51:01;;;;;;;17.60;9.67;;;;;;;14.36;100.00;98505.56;5034464;28;20230;-72
2022/10/13 08:53:34;;;;;;;13.43;9.23;;;;;;;14.43;100.00;98496.38;5034753;28;20206;-72
2022/10/13 08:56:10;;;;;;;13.63;9.40;;;;;;;14.49;100.00;98505.34;5034590;28;20213;-72
2022/10/13 08:58:40;;;;;;;15.67;8.93;;;;;;;14.59;100.00;98494.88;5034366;28;20197;-72
2022/10/13 09:01:36;;;;;;;14.17;8.93;;;;;;;14.55;100.00;98496.38;5034682;28;20222;-72
2022/10/13 09:04:36;;;;;;;15.00;9.77;;;;;;;14.81;100.00;98506.59;5034416;28;20190;-72
2022/10/13 09:07:14;;;;;;;12.37;9.10;;;;;;;14.76;100.00;98501.97;5033976;28;20688;-72
2022/10/13 09:09:41;;;;;;;11.60;8.80;;;;;;;14.76;100.00;98499.28;5033823;28;20272;-72
2022/10/13 09:12:13;;;;;;;13.70;9.20;;;;;;;14.77;100.00;98492.88;5033487;28;20205;-72
2022/10/13 09:14:40;;;;;;;11.13;8.57;;;;;;;14.88;100.00;98502.75;5033887;28;20194;-72
2022/10/13 09:17:20;;;;;;;14.33;8.33;;;;;;;14.92;100.00;98506.59;5033874;28;20201;-72
2022/10/13 09:20:03;;;;;;;11.43;8.40;;;;;;;15.05;100.00;98508.19;5033637;28;20677;-72
2022/10/13 09:22:39;;;;;;;11.30;8.10;;;;;;;15.04;100.00;98501.22;5033835;28;20198;-72
2022/10/13 09:25:20;;;;;;;15.50;8.30;;;;;;;15.06;98.35;98505.28;5033971;28;20194;-72
2022/10/13 09:27:51;;;;;;;12.73;8.20;;;;;;;15.01;99.81;98515.09;5033753;28;20213;-73
2022/10/13 09:30:27;;;;;;;13.00;7.30;;;;;;;15.16;100.00;98502.00;5033502;28;20300;-72
2022/10/13 09:33:07;;;;;;;8.93;7.60;;;;;;;15.06;99.21;98494.56;5033734;28;20202;-71
2022/10/13 09:35:45;;;;;;;9.43;7.50;;;;;;;14.93;99.59;98513.56;5033541;28;20280;-72
2022/10/13 09:38:20;;;;;;;12.67;7.40;;;;;;;14.88;100.00;98509.97;5033579;28;20182;-72
2022/10/13 09:41:06;;;;;;;10.40;7.73;;;;;;;14.99;100.00;98504.59;5033469;28;20225;-72
2022/10/13 09:43:34;;;;;;;9.17;7.03;;;;;;;15.20;100.00;98503.16;5033634;28;20205;-72
2022/10/13 09:46:04;;;;;;;8.80;6.57;;;;;;;15.21;100.00;98502.09;5033610;28;20217;-72
2022/10/13 09:48:37;;;;;;;9.03;6.40;;;;;;;15.15;100.00;98505.75;5033154;28;20685;-72
2022/10/13 09:51:03;;;;;;;10.17;6.50;;;;;;;15.14;99.56;98512.94;5033523;28;20281;-72
2022/10/13 09:53:34;;;;;;;10.20;6.73;;;;;;;15.11;100.00;98508.06;5033318;28;20206;-72
2022/10/13 09:56:26;;;;;;;9.87;6.63;;;;;;;15.23;100.00;98502.66;5033290;28;20190;-72
2022/10/13 09:59:01;;;;;;;9.70;6.33;;;;;;;15.27;98.42;98496.63;5033018;28;20187;-72
2022/10/13 10:01:33;;;;;;;9.17;6.03;;;;;;;15.42;98.68;98499.59;5032621;28;20312;-72
2022/10/13 10:04:03;;;;;;;11.90;6.77;;;;;;;15.47;97.65;98498.91;5032849;28;20243;-72
2022/10/13 10:06:30;;;;;;;11.70;6.47;;;;;;;15.46;98.65;98492.72;5032808;28;20539;-72
2022/10/13 10:09:12;;;;;;;14.53;7.03;;;;;;;15.52;96.81;98504.38;5033089;28;20226;-72
2022/10/13 10:11:44;;;;;;;8.57;6.17;;;;;;;15.53;95.45;98496.09;5033253;28;20264;-71
2022/10/13 10:14:22;;;;;;;11.27;6.03;;;;;;;15.54;97.57;98495.03;5032611;28;20212;-72
2022/10/13 10:17:22;;;;;;;9.57;5.67;;;;;;;15.62;97.26;98494.66;5032925;28;20204;-72
2022/10/13 10:20:03;;;;;;;12.53;5.83;;;;;;;15.47;97.33;98494.34;5033011;28;20226;-72
2022/10/13 10:22:36;;;;;;;7.97;5.73;;;;;;;15.52;97.92;98502.47;5034923;28;20190;-72
2022/10/13 10:25:24;;;;;;;9.03;5.47;;;;;;;15.49;98.34;98491.44;5037112;28;20636;-72
2022/10/13 10:28:21;;;;;;;11.80;6.17;;;;;;;15.37;97.87;98494.16;5037100;28;20225;-72
2022/10/13 10:31:06;;;;;;;8.17;5.70;;;;;;;15.44;98.27;98491.34;5028561;28;20332;-72
2022/10/13 10:34:04;;;;;;;8.73;5.30;;;;;;;15.40;99.81;98487.50;5036506;28;20660;-72
2022/10/13 10:36:51;;;;;;;10.77;5.47;;;;;;;15.35;98.83;98482.06;5036509;28;20641;-72
2022/10/13 10:39:39;;;;;;;8.17;5.57;;;;;;;15.46;100.00;98478.50;5036963;28;20268;-72
2022/10/13 10:42:19;;;;;;;12.67;5.60;;;;;;;15.43;97.56;98481.69;5037044;28;20190;-72
2022/10/13 10:44:49;;;;;;;8.07;5.87;;;;;;;15.53;100.00;98487.22;5036715;28;20194;-71
2022/10/13 10:47:29;;;;;;;9.90;5.70;;;;;;;15.54;99.24;98480.81;5037017;28;20214;-71
2022/10/13 10:50:01;;;;;;;9.97;5.70;;;;;;;15.59;96.96;98478.22;5036247;28;20592;-72
2022/10/13 10:52:48;;;;;;;7.40;5.10;;;;;;;15.55;97.45;98474.38;5036054;28;20675;-72
2022/10/13 10:55:30;;;;;;;6.33;5.23;;;;;;;15.65;96.82;98461.97;5036419;28;20567;-72
2022/10/13 10:58:34;;;;;;;6.80;5.07;;;;;;;15.68;97.35;98461.50;5036269;28;20190;-72
2022/10/13 11:01:19;;;;;;;12.00;5.90;;;;;;;15.78;94.98;98461.69;4955744;29;20323;-72
2022/10/13 11:03:58;;;;;;;11.37;5.37;;;;;;;15.82;93.65;98456.63;4956244;29;20209;-71
2022/10/13 11:06:33;;;;;;;10.20;5.40;;;;;;;15.76;95.37;98454.94;5010658;28;20209;-71
2022/10/13 11:09:00;;;;;;;7.43;5.30;;;;;;;15.70;95.24;98448.66;5036337;28;20220;-73
2022/10/13 11:11:27;;;;;;;8.43;4.67;;;;;;;15.72;95.93;98441.22;5036382;28;20221;-71
2022/10/13 11:14:06;;;;;;;8.57;5.50;;;;;;;15.71;96.03;98436.09;5036044;28;20210;-72
2022/10/13 11:16:58;;;;;;;12.80;5.73;;;;;;;15.79;95.24;98422.28;5036210;28;20276;-72
2022/10/13 11:19:36;;;;;;;6.90;5.47;;;;;;;15.96;94.92;98413.19;5036117;28;20281;-72
2022/10/13 11:22:02;;;;;;;9.27;5.30;;;;;;;15.96;92.86;98420.44;5035828;28;20194;-72
2022/10/13 11:24:35;;;;;;;9.17;5.67;;;;;;;15.99;91.38;98417.25;5035873;28;20691;-72
2022/10/13 11:27:30;;;;;;;8.90;4.80;;;;;;;16.13;92.19;98419.38;5036018;28;20217;-72
2022/10/13 11:29:59;;;;;;;8.67;5.50;;;;;;;16.04;91.14;98423.50;5035628;28;20785;-72